sensor_id;sensor_type;location;lat;lon;timestamp;pressure;altitude;pressure_sealevel;temperature;humidity
67738;BME280;54534;43.612;1.572;2023-04-03T00:00:50;99788.81;;;18.68;48.53
67738;BME280;54534;43.612;1.572;2023-04-03T00:03:16;99783.56;;;18.66;48.16
67738;BME280;54534;43.612;1.572;2023-04-03T00:05:42;99785.38;;;18.66;48.46
67738;BME280;54534;43.612;1.572;2023-04-03T00:08:07;99782.72;;;18.66;48.38
67738;BME280;54534;43.612;1.572;2023-04-03T00:10:35;99775.72;;;18.65;48.20
67738;BME280;54534;43.612;1.572;2023-04-03T00:13:01;99778.38;;;18.65;48.05
67738;BME280;54534;43.612;1.572;2023-04-03T00:15:26;99775.81;;;18.63;48.29
67738;BME280;54534;43.612;1.572;2023-04-03T00:17:52;99775.81;;;18.63;48.30
67738;BME280;54534;43.612;1.572;2023-04-03T00:20:17;99775.81;;;18.63;48.06
67738;BME280;54534;43.612;1.572;2023-04-03T00:22:43;99774.22;;;18.61;48.31
67738;BME280;54534;43.612;1.572;2023-04-03T00:25:08;99776.03;;;18.60;48.29
67738;BME280;54534;43.612;1.572;2023-04-03T00:27:37;99771.53;;;18.61;48.18
67738;BME280;54534;43.612;1.572;2023-04-03T00:30:03;99776.88;;;18.61;48.22
67738;BME280;54534;43.612;1.572;2023-04-03T00:32:28;99769.00;;;18.59;48.16
67738;BME280;54534;43.612;1.572;2023-04-03T00:34:54;99773.47;;;18.59;48.32
67738;BME280;54534;43.612;1.572;2023-04-03T00:37:19;99761.34;;;18.54;48.22
67738;BME280;54534;43.612;1.572;2023-04-03T00:39:45;99769.22;;;18.56;48.21
67738;BME280;54534;43.612;1.572;2023-04-03T00:42:10;99768.38;;;18.55;47.97
67738;BME280;54534;43.612;1.572;2023-04-03T00:47:04;99757.72;;;18.55;48.16
67738;BME280;54534;43.612;1.572;2023-04-03T00:49:31;99756.88;;;18.55;48.20
67738;BME280;54534;43.612;1.572;2023-04-03T00:51:57;99752.50;;;18.54;48.19
67738;BME280;54534;43.612;1.572;2023-04-03T00:54:25;99754.31;;;18.53;48.00
67738;BME280;54534;43.612;1.572;2023-04-03T00:56:51;99753.44;;;18.53;48.33
67738;BME280;54534;43.612;1.572;2023-04-03T00:59:33;99756.25;;;18.51;48.01
67738;BME280;54534;43.612;1.572;2023-04-03T01:02:00;99756.25;;;18.51;48.25
67738;BME280;54534;43.612;1.572;2023-04-03T01:07:10;99749.19;;;18.50;48.08
67738;BME280;54534;43.612;1.572;2023-04-03T01:09:37;99744.84;;;18.49;47.84
67738;BME280;54534;43.612;1.572;2023-04-03T01:12:22;99744.00;;;18.49;47.91
67738;BME280;54534;43.612;1.572;2023-04-03T01:14:56;99740.47;;;18.48;47.93
67738;BME280;54534;43.612;1.572;2023-04-03T01:17:37;99736.13;;;18.47;48.15
67738;BME280;54534;43.612;1.572;2023-04-03T01:22:43;99735.38;;;18.45;48.19
67738;BME280;54534;43.612;1.572;2023-04-03T01:25:10;99735.38;;;18.45;48.36
67738;BME280;54534;43.612;1.572;2023-04-03T01:27:36;99733.69;;;18.44;48.02
67738;BME280;54534;43.612;1.572;2023-04-03T01:30:01;99734.63;;;18.43;47.70
67738;BME280;54534;43.612;1.572;2023-04-03T01:32:27;99729.31;;;18.43;48.27
67738;BME280;54534;43.612;1.572;2023-04-03T01:34:52;99727.72;;;18.40;48.17
67738;BME280;54534;43.612;1.572;2023-04-03T01:37:18;99730.28;;;18.42;48.07
67738;BME280;54534;43.612;1.572;2023-04-03T01:39:43;99723.25;;;18.41;48.30
67738;BME280;54534;43.612;1.572;2023-04-03T01:42:09;99721.44;;;18.41;48.07
67738;BME280;54534;43.612;1.572;2023-04-03T01:44:36;99727.72;;;18.40;47.93
67738;BME280;54534;43.612;1.572;2023-04-03T01:47:02;99718.88;;;18.40;48.10
67738;BME280;54534;43.612;1.572;2023-04-03T01:49:30;99724.19;;;18.40;47.91
67738;BME280;54534;43.612;1.572;2023-04-03T01:51:55;99727.84;;;18.39;48.01
67738;BME280;54534;43.612;1.572;2023-04-03T01:54:21;99722.50;;;18.39;48.10
67738;BME280;54534;43.612;1.572;2023-04-03T01:56:46;99725.38;;;18.36;47.96
67738;BME280;54534;43.612;1.572;2023-04-03T01:59:11;99724.31;;;18.38;47.84
67738;BME280;54534;43.612;1.572;2023-04-03T02:01:37;99716.41;;;18.37;47.96
67738;BME280;54534;43.612;1.572;2023-04-03T02:04:02;99720.91;;;18.36;48.15
67738;BME280;54534;43.612;1.572;2023-04-03T02:06:28;99725.38;;;18.36;47.90
67738;BME280;54534;43.612;1.572;2023-04-03T02:08:53;99718.34;;;18.34;47.97
67738;BME280;54534;43.612;1.572;2023-04-03T02:11:18;99721.88;;;18.35;48.05
67738;BME280;54534;43.612;1.572;2023-04-03T02:13:45;99708.78;;;18.32;47.89
67738;BME280;54534;43.612;1.572;2023-04-03T02:16:11;99705.16;;;18.33;47.98
67738;BME280;54534;43.612;1.572;2023-04-03T02:18:37;99705.16;;;18.33;48.12
67738;BME280;54534;43.612;1.572;2023-04-03T02:21:03;99702.59;;;18.31;48.20
67738;BME280;54534;43.612;1.572;2023-04-03T02:23:29;99700.78;;;18.32;47.79
67738;BME280;54534;43.612;1.572;2023-04-03T02:26:06;99706.09;;;18.32;48.06
67738;BME280;54534;43.612;1.572;2023-04-03T02:28:32;99697.38;;;18.30;47.87
67738;BME280;54534;43.612;1.572;2023-04-03T02:30:57;99697.50;;;18.28;47.81
67738;BME280;54534;43.612;1.572;2023-04-03T02:33:22;99705.25;;;18.31;47.83
67738;BME280;54534;43.612;1.572;2023-04-03T02:35:52;99704.50;;;18.29;48.07
67738;BME280;54534;43.612;1.572;2023-04-03T02:38:18;99700.06;;;18.30;48.04
67738;BME280;54534;43.612;1.572;2023-04-03T02:40:44;99697.50;;;18.28;48.16
67738;BME280;54534;43.612;1.572;2023-04-03T02:43:09;99699.19;;;18.29;48.37
67738;BME280;54534;43.612;1.572;2023-04-03T02:45:35;99694.84;;;18.28;48.37
67738;BME280;54534;43.612;1.572;2023-04-03T02:48:01;99690.47;;;18.27;48.24
67738;BME280;54534;43.612;1.572;2023-04-03T02:50:26;99683.44;;;18.26;48.18
67738;BME280;54534;43.612;1.572;2023-04-03T02:52:51;99690.59;;;18.26;47.88
67738;BME280;54534;43.612;1.572;2023-04-03T02:55:17;99676.44;;;18.25;47.91
67738;BME280;54534;43.612;1.572;2023-04-03T02:57:42;99679.94;;;18.26;48.24
67738;BME280;54534;43.612;1.572;2023-04-03T03:00:08;99675.56;;;18.25;48.37
67738;BME280;54534;43.612;1.572;2023-04-03T03:02:35;99670.25;;;18.25;48.11
67738;BME280;54534;43.612;1.572;2023-04-03T03:05:00;99675.69;;;18.23;48.24
67738;BME280;54534;43.612;1.572;2023-04-03T03:07:25;99673.97;;;18.22;48.25
67738;BME280;54534;43.612;1.572;2023-04-03T03:09:51;99678.34;;;18.23;47.94
67738;BME280;54534;43.612;1.572;2023-04-03T03:12:16;99671.31;;;18.22;48.08
67738;BME280;54534;43.612;1.572;2023-04-03T03:14:47;99672.28;;;18.21;48.29
67738;BME280;54534;43.612;1.572;2023-04-03T03:17:12;99668.78;;;18.20;48.21
67738;BME280;54534;43.612;1.572;2023-04-03T03:19:38;99661.63;;;18.21;48.30
67738;BME280;54534;43.612;1.572;2023-04-03T03:22:03;99666.94;;;18.21;47.98
67738;BME280;54534;43.612;1.572;2023-04-03T03:24:29;99673.22;;;18.20;48.21
67738;BME280;54534;43.612;1.572;2023-04-03T03:26:55;99666.19;;;18.19;47.80
67738;BME280;54534;43.612;1.572;2023-04-03T03:29:20;99666.19;;;18.19;48.37
67738;BME280;54534;43.612;1.572;2023-04-03T03:31:46;99661.84;;;18.18;47.83
67738;BME280;54534;43.612;1.572;2023-04-03T03:34:11;99661.84;;;18.18;48.09
67738;BME280;54534;43.612;1.572;2023-04-03T03:36:37;99664.50;;;18.18;47.87
67738;BME280;54534;43.612;1.572;2023-04-03T03:39:02;99659.19;;;18.18;48.33
67738;BME280;54534;43.612;1.572;2023-04-03T03:41:28;99656.59;;;18.16;48.03
67738;BME280;54534;43.612;1.572;2023-04-03T03:43:53;99654.06;;;18.15;47.84
67738;BME280;54534;43.612;1.572;2023-04-03T03:46:19;99655.75;;;18.16;48.15
67738;BME280;54534;43.612;1.572;2023-04-03T03:48:44;99655.75;;;18.16;48.04
67738;BME280;54534;43.612;1.572;2023-04-03T03:51:10;99654.91;;;18.15;47.90
67738;BME280;54534;43.612;1.572;2023-04-03T03:53:35;99644.38;;;18.14;47.90
67738;BME280;54534;43.612;1.572;2023-04-03T03:56:01;99640.03;;;18.12;48.04
67738;BME280;54534;43.612;1.572;2023-04-03T03:58:26;99643.41;;;18.15;47.88
67738;BME280;54534;43.612;1.572;2023-04-03T04:00:52;99639.91;;;18.14;48.19
67738;BME280;54534;43.612;1.572;2023-04-03T04:03:17;99632.03;;;18.12;48.10
67738;BME280;54534;43.612;1.572;2023-04-03T04:05:43;99639.16;;;18.12;48.19
67738;BME280;54534;43.612;1.572;2023-04-03T04:08:08;99635.66;;;18.11;48.09
67738;BME280;54534;43.612;1.572;2023-04-03T04:10:34;99633.84;;;18.12;48.10
67738;BME280;54534;43.612;1.572;2023-04-03T04:13:00;99639.16;;;18.12;48.12
67738;BME280;54534;43.612;1.572;2023-04-03T04:15:25;99638.31;;;18.11;48.03
67738;BME280;54534;43.612;1.572;2023-04-03T04:17:52;99625.97;;;18.10;48.20
67738;BME280;54534;43.612;1.572;2023-04-03T04:20:21;99633.13;;;18.10;48.23
67738;BME280;54534;43.612;1.572;2023-04-03T04:22:46;99633.13;;;18.10;48.12
67738;BME280;54534;43.612;1.572;2023-04-03T04:25:12;99637.56;;;18.09;47.85
67738;BME280;54534;43.612;1.572;2023-04-03T04:27:37;99634.06;;;18.09;48.35
67738;BME280;54534;43.612;1.572;2023-04-03T04:30:03;99631.41;;;18.09;47.75
67738;BME280;54534;43.612;1.572;2023-04-03T04:32:29;99633.19;;;18.08;48.36
67738;BME280;54534;43.612;1.572;2023-04-03T04:34:55;99634.19;;;18.07;48.11
67738;BME280;54534;43.612;1.572;2023-04-03T04:37:20;99626.19;;;18.07;47.88
67738;BME280;54534;43.612;1.572;2023-04-03T04:39:45;99628.88;;;18.07;48.38
67738;BME280;54534;43.612;1.572;2023-04-03T04:42:11;99631.53;;;18.07;48.26
67738;BME280;54534;43.612;1.572;2023-04-03T04:44:38;99625.44;;;18.05;48.22
67738;BME280;54534;43.612;1.572;2023-04-03T04:47:04;99624.50;;;18.06;48.14
67738;BME280;54534;43.612;1.572;2023-04-03T04:49:30;99620.97;;;18.06;47.80
67738;BME280;54534;43.612;1.572;2023-04-03T04:51:55;99623.75;;;18.04;48.31
67738;BME280;54534;43.612;1.572;2023-04-03T04:54:21;99625.44;;;18.05;48.09
67738;BME280;54534;43.612;1.572;2023-04-03T04:56:46;99615.84;;;18.03;48.19
67738;BME280;54534;43.612;1.572;2023-04-03T04:59:12;99621.09;;;18.04;48.15
67738;BME280;54534;43.612;1.572;2023-04-03T05:01:38;99612.38;;;18.02;48.32
67738;BME280;54534;43.612;1.572;2023-04-03T05:04:03;99613.09;;;18.04;48.33
67738;BME280;54534;43.612;1.572;2023-04-03T05:06:29;99608.75;;;18.03;48.35
67738;BME280;54534;43.612;1.572;2023-04-03T05:08:57;99616.72;;;18.03;48.24
67738;BME280;54534;43.612;1.572;2023-04-03T05:11:23;99610.53;;;18.03;48.58
67738;BME280;54534;43.612;1.572;2023-04-03T05:13:49;99609.59;;;18.04;48.52
67738;BME280;54534;43.612;1.572;2023-04-03T05:16:15;99605.13;;;18.04;48.54
67738;BME280;54534;43.612;1.572;2023-04-03T05:18:40;99608.75;;;18.03;48.67
67738;BME280;54534;43.612;1.572;2023-04-03T05:21:05;99610.44;;;18.04;48.69
67738;BME280;54534;43.612;1.572;2023-04-03T05:23:31;99611.41;;;18.03;48.58
67738;BME280;54534;43.612;1.572;2023-04-03T05:25:56;99614.06;;;18.03;48.23
67738;BME280;54534;43.612;1.572;2023-04-03T05:28:22;99614.06;;;18.03;48.58
67738;BME280;54534;43.612;1.572;2023-04-03T05:30:55;99614.91;;;18.04;48.27
67738;BME280;54534;43.612;1.572;2023-04-03T05:33:20;99608.09;;;17.99;48.73
67738;BME280;54534;43.612;1.572;2023-04-03T05:35:46;99620.44;;;18.00;48.37
67738;BME280;54534;43.612;1.572;2023-04-03T05:38:11;99616.84;;;18.01;48.81
67738;BME280;54534;43.612;1.572;2023-04-03T05:40:37;99618.66;;;18.01;48.78
67738;BME280;54534;43.612;1.572;2023-04-03T05:43:02;99623.09;;;18.00;48.78
67738;BME280;54534;43.612;1.572;2023-04-03T05:45:28;99621.41;;;17.99;48.71
67738;BME280;54534;43.612;1.572;2023-04-03T05:47:53;99622.25;;;18.00;48.49
67738;BME280;54534;43.612;1.572;2023-04-03T05:50:19;99621.41;;;17.99;48.67
67738;BME280;54534;43.612;1.572;2023-04-03T05:52:47;99623.97;;;18.01;48.49
67738;BME280;54534;43.612;1.572;2023-04-03T05:55:14;99624.91;;;18.00;48.70
67738;BME280;54534;43.612;1.572;2023-04-03T05:57:40;99622.25;;;18.00;48.45
67738;BME280;54534;43.612;1.572;2023-04-03T06:00:08;99624.06;;;17.99;48.59
67738;BME280;54534;43.612;1.572;2023-04-03T06:02:35;99634.59;;;18.01;48.87
67738;BME280;54534;43.612;1.572;2023-04-03T06:05:01;99628.56;;;17.99;48.58
67738;BME280;54534;43.612;1.572;2023-04-03T06:07:27;99631.09;;;18.00;48.45
67738;BME280;54534;43.612;1.572;2023-04-03T06:09:54;99631.22;;;17.99;48.88
67738;BME280;54534;43.612;1.572;2023-04-03T06:12:21;99633.88;;;17.99;48.99
67738;BME280;54534;43.612;1.572;2023-04-03T06:14:47;99632.16;;;17.98;48.52
67738;BME280;54534;43.612;1.572;2023-04-03T06:17:13;99642.69;;;17.99;48.48
67738;BME280;54534;43.612;1.572;2023-04-03T06:19:39;99632.16;;;17.98;48.57
67738;BME280;54534;43.612;1.572;2023-04-03T06:22:05;99643.66;;;17.98;48.94
67738;BME280;54534;43.612;1.572;2023-04-03T06:24:31;99641.94;;;17.97;48.68
67738;BME280;54534;43.612;1.572;2023-04-03T06:26:56;99642.94;;;17.96;48.61
67738;BME280;54534;43.612;1.572;2023-04-03T06:29:22;99646.41;;;17.97;48.98
67738;BME280;54534;43.612;1.572;2023-04-03T06:31:49;99646.41;;;17.97;48.55
67738;BME280;54534;43.612;1.572;2023-04-03T06:34:14;99649.19;;;17.95;48.28
67738;BME280;54534;43.612;1.572;2023-04-03T06:36:41;99650.13;;;17.94;48.25
67738;BME280;54534;43.612;1.572;2023-04-03T06:39:09;99654.50;;;17.95;48.44
67738;BME280;54534;43.612;1.572;2023-04-03T06:41:36;99652.91;;;17.93;48.34
67738;BME280;54534;43.612;1.572;2023-04-03T06:44:02;99657.28;;;17.94;48.61
67738;BME280;54534;43.612;1.572;2023-04-03T06:46:28;99658.25;;;17.93;48.78
67738;BME280;54534;43.612;1.572;2023-04-03T06:48:54;99657.38;;;17.92;48.64
67738;BME280;54534;43.612;1.572;2023-04-03T06:51:25;99660.91;;;17.93;48.64
67738;BME280;54534;43.612;1.572;2023-04-03T06:53:52;99656.44;;;17.93;48.34
67738;BME280;54534;43.612;1.572;2023-04-03T06:56:18;99659.19;;;17.92;48.34
67738;BME280;54534;43.612;1.572;2023-04-03T06:58:44;99657.50;;;17.90;48.56
67738;BME280;54534;43.612;1.572;2023-04-03T07:01:11;99651.34;;;17.90;48.21
67738;BME280;54534;43.612;1.572;2023-04-03T07:03:37;99652.19;;;17.90;48.29
67738;BME280;54534;43.612;1.572;2023-04-03T07:06:04;99654.94;;;17.89;48.57
67738;BME280;54534;43.612;1.572;2023-04-03T07:08:31;99651.44;;;17.88;48.37
67738;BME280;54534;43.612;1.572;2023-04-03T07:10:56;99648.78;;;17.88;48.19
67738;BME280;54534;43.612;1.572;2023-04-03T07:13:21;99643.47;;;17.88;48.43
67738;BME280;54534;43.612;1.572;2023-04-03T07:15:47;99644.41;;;17.87;47.98
67738;BME280;54534;43.612;1.572;2023-04-03T07:18:13;99637.28;;;17.88;48.05
67738;BME280;54534;43.612;1.572;2023-04-03T07:20:39;99640.03;;;17.86;48.38
67738;BME280;54534;43.612;1.572;2023-04-03T07:23:04;99637.38;;;17.86;48.10
67738;BME280;54534;43.612;1.572;2023-04-03T07:25:30;99633.03;;;17.85;48.21
67738;BME280;54534;43.612;1.572;2023-04-03T07:27:57;99643.69;;;17.85;48.04
67738;BME280;54534;43.612;1.572;2023-04-03T07:30:23;99640.16;;;17.85;47.96
67738;BME280;54534;43.612;1.572;2023-04-03T07:32:48;99650.06;;;17.83;47.92
67738;BME280;54534;43.612;1.572;2023-04-03T07:35:14;99642.81;;;17.85;48.22
67738;BME280;54534;43.612;1.572;2023-04-03T07:37:40;99649.09;;;17.84;48.37
67738;BME280;54534;43.612;1.572;2023-04-03T07:40:06;99638.56;;;17.82;48.42
67738;BME280;54534;43.612;1.572;2023-04-03T07:42:32;99643.88;;;17.82;47.96
67738;BME280;54534;43.612;1.572;2023-04-03T07:44:57;99641.22;;;17.82;48.00
67738;BME280;54534;43.612;1.572;2023-04-03T07:47:23;99647.41;;;17.83;47.94
67738;BME280;54534;43.612;1.572;2023-04-03T07:49:48;99634.19;;;17.81;47.97
67738;BME280;54534;43.612;1.572;2023-04-03T07:52:14;99636.03;;;17.81;47.87
67738;BME280;54534;43.612;1.572;2023-04-03T07:54:41;99641.34;;;17.81;47.91
67738;BME280;54534;43.612;1.572;2023-04-03T07:57:06;99636.97;;;17.79;47.91
67738;BME280;54534;43.612;1.572;2023-04-03T07:59:31;99634.31;;;17.79;47.92
67738;BME280;54534;43.612;1.572;2023-04-03T08:01:57;99637.91;;;17.78;47.86
67738;BME280;54534;43.612;1.572;2023-04-03T08:04:23;99645.91;;;17.78;47.81
67738;BME280;54534;43.612;1.572;2023-04-03T08:06:48;99648.56;;;17.78;47.79
67738;BME280;54534;43.612;1.572;2023-04-03T08:09:15;99647.75;;;17.78;48.06
67738;BME280;54534;43.612;1.572;2023-04-03T08:11:41;99648.69;;;17.77;47.78
67738;BME280;54534;43.612;1.572;2023-04-03T08:14:06;99643.25;;;17.78;47.74
67738;BME280;54534;43.612;1.572;2023-04-03T08:16:32;99633.66;;;17.76;48.33
67738;BME280;54534;43.612;1.572;2023-04-03T08:18:58;99642.50;;;17.76;47.97
67738;BME280;54534;43.612;1.572;2023-04-03T08:21:23;99637.19;;;17.76;47.78
67738;BME280;54534;43.612;1.572;2023-04-03T08:23:49;99644.31;;;17.76;47.70
67738;BME280;54534;43.612;1.572;2023-04-03T08:26:20;99638.25;;;17.74;47.88
67738;BME280;54534;43.612;1.572;2023-04-03T08:28:47;99631.13;;;17.74;47.71
67738;BME280;54534;43.612;1.572;2023-04-03T08:31:15;99632.84;;;17.75;48.10
67738;BME280;54534;43.612;1.572;2023-04-03T08:33:42;99614.31;;;17.74;47.79
67738;BME280;54534;43.612;1.572;2023-04-03T08:36:20;99621.34;;;17.75;48.12
67738;BME280;54534;43.612;1.572;2023-04-03T08:38:46;99617.84;;;17.74;48.00
67738;BME280;54534;43.612;1.572;2023-04-03T08:49:43;99624.34;;;17.70;47.63
67738;BME280;54534;43.612;1.572;2023-04-03T08:58:09;99625.28;;;17.69;48.06
67738;BME280;54534;43.612;1.572;2023-04-03T09:00:49;99625.28;;;17.69;48.24
67738;BME280;54534;43.612;1.572;2023-04-03T09:03:18;99621.78;;;17.68;47.98
67738;BME280;54534;43.612;1.572;2023-04-03T09:05:55;99632.41;;;17.68;48.11
67738;BME280;54534;43.612;1.572;2023-04-03T09:20:11;99621.88;;;17.67;47.91
67738;BME280;54534;43.612;1.572;2023-04-03T09:22:42;99622.97;;;17.64;47.82
67738;BME280;54534;43.612;1.572;2023-04-03T09:25:15;99629.94;;;17.65;48.01
67738;BME280;54534;43.612;1.572;2023-04-03T09:27:42;99624.63;;;17.65;47.65
67738;BME280;54534;43.612;1.572;2023-04-03T09:30:14;99621.16;;;17.65;47.57
67738;BME280;54534;43.612;1.572;2023-04-03T09:32:40;99626.47;;;17.65;47.56
67738;BME280;54534;43.612;1.572;2023-04-03T09:35:25;99621.97;;;17.65;47.68
67738;BME280;54534;43.612;1.572;2023-04-03T09:37:53;99620.28;;;17.64;48.06
67738;BME280;54534;43.612;1.572;2023-04-03T09:42:51;99623.91;;;17.63;47.85
67738;BME280;54534;43.612;1.572;2023-04-03T09:45:27;99612.31;;;17.64;47.69
67738;BME280;54534;43.612;1.572;2023-04-03T09:51:01;99607.94;;;17.63;47.56
67738;BME280;54534;43.612;1.572;2023-04-03T09:53:41;99599.22;;;17.61;47.67
67738;BME280;54534;43.612;1.572;2023-04-03T09:58:44;99587.66;;;17.62;47.74
67738;BME280;54534;43.612;1.572;2023-04-03T10:06:41;99581.47;;;17.62;47.78
67738;BME280;54534;43.612;1.572;2023-04-03T10:09:26;99572.63;;;17.61;47.49
67738;BME280;54534;43.612;1.572;2023-04-03T10:14:25;99565.59;;;17.60;47.48
67738;BME280;54534;43.612;1.572;2023-04-03T10:17:02;99568.28;;;17.60;47.66
67738;BME280;54534;43.612;1.572;2023-04-03T10:25:39;99560.28;;;17.60;47.46
67738;BME280;54534;43.612;1.572;2023-04-03T10:28:20;99556.78;;;17.60;47.66
67738;BME280;54534;43.612;1.572;2023-04-03T10:31:05;99557.75;;;17.59;47.62
67738;BME280;54534;43.612;1.572;2023-04-03T10:36:27;99554.25;;;17.58;47.83
67738;BME280;54534;43.612;1.572;2023-04-03T10:42:00;99556.91;;;17.58;47.53
67738;BME280;54534;43.612;1.572;2023-04-03T10:45:03;99553.38;;;17.58;47.87
67738;BME280;54534;43.612;1.572;2023-04-03T10:48:14;99550.84;;;17.56;47.70
67738;BME280;54534;43.612;1.572;2023-04-03T10:51:06;99542.88;;;17.56;47.54
67738;BME280;54534;43.612;1.572;2023-04-03T10:59:05;99550.84;;;17.56;47.67
67738;BME280;54534;43.612;1.572;2023-04-03T11:01:38;99545.63;;;17.54;47.69
67738;BME280;54534;43.612;1.572;2023-04-03T11:04:06;99547.34;;;17.55;47.48
67738;BME280;54534;43.612;1.572;2023-04-03T11:06:39;99538.50;;;17.55;47.38
67738;BME280;54534;43.612;1.572;2023-04-03T11:09:25;99528.72;;;17.55;47.69
67738;BME280;54534;43.612;1.572;2023-04-03T11:11:56;99533.91;;;17.57;47.53
67738;BME280;54534;43.612;1.572;2023-04-03T11:14:32;99529.66;;;17.54;47.68
67738;BME280;54534;43.612;1.572;2023-04-03T11:22:37;99513.72;;;17.54;47.61
67738;BME280;54534;43.612;1.572;2023-04-03T11:28:05;99508.41;;;17.54;47.49
67738;BME280;54534;43.612;1.572;2023-04-03T11:36:21;99503.09;;;17.54;47.56
67738;BME280;54534;43.612;1.572;2023-04-03T11:38:49;99500.53;;;17.53;47.48
67738;BME280;54534;43.612;1.572;2023-04-03T11:41:25;99507.66;;;17.52;47.44
67738;BME280;54534;43.612;1.572;2023-04-03T11:46:49;99494.38;;;17.52;47.17
67738;BME280;54534;43.612;1.572;2023-04-03T12:08:43;99463.44;;;17.51;47.56
67738;BME280;54534;43.612;1.572;2023-04-03T12:16:27;99453.75;;;17.50;47.75
67738;BME280;54534;43.612;1.572;2023-04-03T12:18:55;99449.31;;;17.51;47.07
67738;BME280;54534;43.612;1.572;2023-04-03T12:21:23;99447.59;;;17.50;47.28
67738;BME280;54534;43.612;1.572;2023-04-03T12:23:59;99442.28;;;17.50;47.44
67738;BME280;54534;43.612;1.572;2023-04-03T12:26:50;99447.50;;;17.51;47.21
67738;BME280;54534;43.612;1.572;2023-04-03T12:29:19;99447.59;;;17.50;47.80
67738;BME280;54534;43.612;1.572;2023-04-03T12:38:16;99445.78;;;17.50;47.37
67738;BME280;54534;43.612;1.572;2023-04-03T12:45:42;99442.41;;;17.48;47.47
67738;BME280;54534;43.612;1.572;2023-04-03T12:48:15;99441.41;;;17.49;47.36
67738;BME280;54534;43.612;1.572;2023-04-03T12:50:43;99436.09;;;17.49;47.39
67738;BME280;54534;43.612;1.572;2023-04-03T12:53:16;99425.47;;;17.49;47.48
67738;BME280;54534;43.612;1.572;2023-04-03T12:55:43;99419.31;;;17.49;47.22
67738;BME280;54534;43.612;1.572;2023-04-03T12:58:15;99428.97;;;17.50;47.29
67738;BME280;54534;43.612;1.572;2023-04-03T13:00:42;99420.16;;;17.49;47.18
67738;BME280;54534;43.612;1.572;2023-04-03T13:03:22;99410.38;;;17.50;47.13
67738;BME280;54534;43.612;1.572;2023-04-03T13:05:50;99406.03;;;17.49;47.37
67738;BME280;54534;43.612;1.572;2023-04-03T13:08:16;99402.53;;;17.48;47.21
67738;BME280;54534;43.612;1.572;2023-04-03T13:10:59;99409.50;;;17.49;47.33
67738;BME280;54534;43.612;1.572;2023-04-03T13:13:26;99403.38;;;17.49;47.23
67738;BME280;54534;43.612;1.572;2023-04-03T13:15:52;99403.38;;;17.49;47.34
67738;BME280;54534;43.612;1.572;2023-04-03T13:18:26;99392.63;;;17.50;47.58
67738;BME280;54534;43.612;1.572;2023-04-03T13:20:53;99393.56;;;17.49;47.20
67738;BME280;54534;43.612;1.572;2023-04-03T13:23:22;99388.25;;;17.49;47.31
67738;BME280;54534;43.612;1.572;2023-04-03T13:25:49;99382.94;;;17.49;47.11
67738;BME280;54534;43.612;1.572;2023-04-03T13:28:19;99382.94;;;17.49;47.61
67738;BME280;54534;43.612;1.572;2023-04-03T13:31:30;99369.63;;;17.49;47.30
67738;BME280;54534;43.612;1.572;2023-04-03T13:34:05;99377.63;;;17.49;47.36
67738;BME280;54534;43.612;1.572;2023-04-03T13:36:38;99374.97;;;17.49;47.48
67738;BME280;54534;43.612;1.572;2023-04-03T13:39:06;99375.81;;;17.50;47.37
67738;BME280;54534;43.612;1.572;2023-04-03T13:41:38;99370.50;;;17.50;47.25
67738;BME280;54534;43.612;1.572;2023-04-03T13:46:55;99366.75;;;17.52;47.25
67738;BME280;54534;43.612;1.572;2023-04-03T13:49:22;99362.31;;;17.53;47.33
67738;BME280;54534;43.612;1.572;2023-04-03T13:51:52;99358.69;;;17.54;47.27
67738;BME280;54534;43.612;1.572;2023-04-03T13:56:54;99355.91;;;17.55;47.08
67738;BME280;54534;43.612;1.572;2023-04-03T13:59:34;99356.63;;;17.58;47.32
67738;BME280;54534;43.612;1.572;2023-04-03T14:06:56;99354.63;;;17.61;46.93
67738;BME280;54534;43.612;1.572;2023-04-03T14:09:22;99343.84;;;17.63;46.86
67738;BME280;54534;43.612;1.572;2023-04-03T14:11:51;99337.72;;;17.62;46.84
67738;BME280;54534;43.612;1.572;2023-04-03T14:14:21;99336.72;;;17.63;47.16
67738;BME280;54534;43.612;1.572;2023-04-03T14:16:52;99328.75;;;17.63;47.19
67738;BME280;54534;43.612;1.572;2023-04-03T14:19:30;99326.94;;;17.64;46.98
67738;BME280;54534;43.612;1.572;2023-04-03T14:21:56;99326.81;;;17.65;47.12
67738;BME280;54534;43.612;1.572;2023-04-03T14:24:22;99322.34;;;17.66;46.93
67738;BME280;54534;43.612;1.572;2023-04-03T14:26:49;99314.38;;;17.66;46.96
67738;BME280;54534;43.612;1.572;2023-04-03T14:29:16;99316.94;;;17.67;46.93
67738;BME280;54534;43.612;1.572;2023-04-03T14:31:43;99308.97;;;17.67;46.98
67738;BME280;54534;43.612;1.572;2023-04-03T14:34:10;99302.66;;;17.68;47.05
67738;BME280;54534;43.612;1.572;2023-04-03T14:36:37;99305.31;;;17.68;46.81
67738;BME280;54534;43.612;1.572;2023-04-03T14:39:04;99298.19;;;17.69;47.01
67738;BME280;54534;43.612;1.572;2023-04-03T14:41:29;99301.00;;;17.67;47.13
67738;BME280;54534;43.612;1.572;2023-04-03T14:43:55;99297.25;;;17.70;46.74
67738;BME280;54534;43.612;1.572;2023-04-03T14:46:30;99295.41;;;17.71;47.07
67738;BME280;54534;43.612;1.572;2023-04-03T14:48:56;99291.94;;;17.70;47.12
67738;BME280;54534;43.612;1.572;2023-04-03T14:51:22;99283.94;;;17.70;46.66
67738;BME280;54534;43.612;1.572;2023-04-03T14:53:48;99289.00;;;17.73;46.77
67738;BME280;54534;43.612;1.572;2023-04-03T14:56:18;99280.09;;;17.74;47.01
67738;BME280;54534;43.612;1.572;2023-04-03T14:58:43;99278.38;;;17.73;47.06
67738;BME280;54534;43.612;1.572;2023-04-03T15:01:11;99273.91;;;17.74;46.90
67738;BME280;54534;43.612;1.572;2023-04-03T15:03:37;99263.28;;;17.74;46.58
67738;BME280;54534;43.612;1.572;2023-04-03T15:06:02;99267.63;;;17.75;46.65
67738;BME280;54534;43.612;1.572;2023-04-03T15:08:28;99261.59;;;17.73;46.88
67738;BME280;54534;43.612;1.572;2023-04-03T15:10:57;99257.00;;;17.75;47.16
67738;BME280;54534;43.612;1.572;2023-04-03T15:13:24;99256.03;;;17.76;46.72
67738;BME280;54534;43.612;1.572;2023-04-03T15:15:50;99260.38;;;17.77;46.55